Time;durP1;ratioP1;P1;durP2;ratioP2;P2;SDS_P1;SDS_P2;PMS_P1;PMS_P2;Temp;Humidity;BMP_temperature;BMP_pressure;BME280_temperature;BME280_humidity;BME280_pressure;Samples;Min_cycle;Max_cycle;Signal;HPM_P1;HPM_P2
2022/04/05 00:01:41;;;;;;;5.07;2.70;;;;;;;;;;4909255;29;20139;-71
2022/04/05 00:04:07;;;;;;;7.22;2.95;;;;;;;;;;4909215;29;20048;-71
2022/04/05 00:06:33;;;;;;;6.10;3.13;;;;;;;;;;4909752;29;20056;-70
2022/04/05 00:08:58;;;;;;;5.82;2.30;;;;;;;;;;4909549;29;20044;-71
2022/04/05 00:11:24;;;;;;;6.65;2.53;;;;;;;;;;4905562;29;20389;-70
2022/04/05 00:13:50;;;;;;;5.72;2.78;;;;;;;;;;4907073;29;20056;-71
2022/04/05 00:16:16;;;;;;;9.18;2.60;;;;;;;;;;4907947;29;20044;-70
2022/04/05 00:18:42;;;;;;;5.90;2.90;;;;;;;;;;4908858;29;20076;-69
2022/04/05 00:21:08;;;;;;;4.07;2.50;;;;;;;;;;4913198;29;20040;-72
2022/04/05 00:23:34;;;;;;;5.53;2.50;;;;;;;;;;4914126;29;20056;-72
2022/04/05 00:26:00;;;;;;;5.38;2.60;;;;;;;;;;4912372;29;20041;-70
2022/04/05 00:28:26;;;;;;;9.32;3.05;;;;;;;;;;4910452;29;20044;-69
2022/04/05 00:30:52;;;;;;;6.30;2.65;;;;;;;;;;4911657;29;20327;-70
2022/04/05 00:33:17;;;;;;;4.75;2.75;;;;;;;;;;4912192;29;20044;-69
2022/04/05 00:35:43;;;;;;;8.20;2.70;;;;;;;;;;4913666;29;20130;-69
2022/04/05 00:38:09;;;;;;;8.55;2.70;;;;;;;;;;4908115;29;20047;-70
2022/04/05 00:40:36;;;;;;;7.07;2.53;;;;;;;;;;4903527;29;20094;-68
2022/04/05 00:43:05;;;;;;;8.00;2.97;;;;;;;;;;4911260;29;20067;-70
2022/04/05 00:45:35;;;;;;;5.53;2.70;;;;;;;;;;4911012;29;20103;-70
2022/04/05 00:48:03;;;;;;;5.07;2.50;;;;;;;;;;4911772;29;20124;-69
2022/04/05 00:50:36;;;;;;;5.57;2.20;;;;;;;;;;4905316;29;20058;-70
2022/04/05 00:53:04;;;;;;;4.75;2.10;;;;;;;;;;4908533;29;20051;-69
2022/04/05 00:55:31;;;;;;;5.78;2.40;;;;;;;;;;4911118;29;20416;-70
2022/04/05 00:57:59;;;;;;;6.97;2.70;;;;;;;;;;4911471;29;20458;-70
2022/04/05 01:00:25;;;;;;;8.07;2.50;;;;;;;;;;4904546;29;20054;-69
2022/04/05 01:02:53;;;;;;;8.48;2.53;;;;;;;;;;4905342;29;20874;-71
2022/04/05 01:05:21;;;;;;;5.00;2.22;;;;;;;;;;4912538;29;20044;-69
2022/04/05 01:07:50;;;;;;;4.82;2.95;;;;;;;;;;4912969;29;20048;-68
2022/04/05 01:10:16;;;;;;;7.22;2.33;;;;;;;;;;4908589;29;20070;-70
2022/04/05 01:12:42;;;;;;;6.55;2.20;;;;;;;;;;4906216;29;20499;-69
2022/04/05 01:15:09;;;;;;;5.20;2.38;;;;;;;;;;4905454;29;20040;-68
2022/04/05 01:17:35;;;;;;;6.38;2.47;;;;;;;;;;4910284;29;20083;-68
2022/04/05 01:20:03;;;;;;;4.65;2.30;;;;;;;;;;4910740;29;20135;-70
2022/04/05 01:22:28;;;;;;;5.57;2.42;;;;;;;;;;4912028;29;20048;-68
2022/04/05 01:24:54;;;;;;;4.60;1.83;;;;;;;;;;4911487;29;20059;-69
2022/04/05 01:27:20;;;;;;;7.38;2.60;;;;;;;;;;4911472;29;20051;-68
2022/04/05 01:29:47;;;;;;;9.00;2.60;;;;;;;;;;4911175;29;20138;-67
2022/04/05 01:32:14;;;;;;;7.00;2.50;;;;;;;;;;4908086;29;20048;-68
2022/04/05 01:34:40;;;;;;;4.68;2.38;;;;;;;;;;4907109;29;20091;-68
2022/04/05 01:37:10;;;;;;;10.25;2.20;;;;;;;;;;4910415;29;20056;-68
2022/04/05 01:39:38;;;;;;;4.43;2.30;;;;;;;;;;4902356;29;20056;-69
2022/04/05 01:42:08;;;;;;;5.85;2.28;;;;;;;;;;4910306;29;20175;-69
2022/04/05 01:44:36;;;;;;;6.35;2.20;;;;;;;;;;4910646;29;20532;-69
2022/04/05 01:47:11;;;;;;;6.68;2.17;;;;;;;;;;4907149;29;20053;-68
2022/04/05 01:49:37;;;;;;;;;;;;;;;;;;4910501;29;20063;-67
2022/04/05 01:52:04;;;;;;;4.72;1.90;;;;;;;;;;4910059;29;20461;-68
2022/04/05 01:54:30;;;;;;;4.68;2.30;;;;;;;;;;4907350;29;20336;-69
2022/04/05 01:56:57;;;;;;;4.22;1.95;;;;;;;;;;4911306;29;20506;-68
2022/04/05 01:59:28;;;;;;;3.83;2.00;;;;;;;;;;4909802;29;20080;-68
2022/04/05 02:01:55;;;;;;;6.97;2.00;;;;;;;;;;4906906;29;20052;-69
2022/04/05 02:04:21;;;;;;;5.80;2.03;;;;;;;;;;4907962;29;20048;-69
2022/04/05 02:06:47;;;;;;;4.13;1.85;;;;;;;;;;4911929;29;20052;-69
2022/04/05 02:09:14;;;;;;;4.45;1.92;;;;;;;;;;4909937;29;20215;-68
2022/04/05 02:11:46;;;;;;;3.42;1.80;;;;;;;;;;4907062;29;20605;-68
2022/04/05 02:14:12;;;;;;;8.52;2.03;;;;;;;;;;4909144;29;20519;-69
2022/04/05 02:16:38;;;;;;;9.75;2.80;;;;;;;;;;4911451;29;20443;-69
2022/04/05 02:19:04;;;;;;;6.65;2.25;;;;;;;;;;4909352;29;20075;-68
2022/04/05 02:21:30;;;;;;;4.53;1.70;;;;;;;;;;4906091;29;20075;-69
2022/04/05 02:23:56;;;;;;;6.18;1.90;;;;;;;;;;4909857;29;20067;-70
2022/04/05 02:26:22;;;;;;;3.78;2.10;;;;;;;;;;4910353;29;20040;-69
2022/04/05 02:28:48;;;;;;;5.03;2.03;;;;;;;;;;4906314;29;20554;-69
2022/04/05 02:31:14;;;;;;;6.00;1.90;;;;;;;;;;4908529;29;20048;-70
2022/04/05 02:33:40;;;;;;;6.45;2.45;;;;;;;;;;4902309;29;20082;-69
2022/04/05 02:36:07;;;;;;;3.63;2.05;;;;;;;;;;4908186;29;20395;-69
2022/04/05 02:38:33;;;;;;;4.25;2.10;;;;;;;;;;4907878;29;20406;-69
2022/04/05 02:40:59;;;;;;;6.68;2.17;;;;;;;;;;4908895;29;20131;-71
2022/04/05 02:43:25;;;;;;;6.85;2.15;;;;;;;;;;4909434;29;20503;-69
2022/04/05 02:45:55;;;;;;;3.72;1.90;;;;;;;;;;4910228;29;20040;-70
2022/04/05 02:48:24;;;;;;;9.82;2.35;;;;;;;;;;4910638;29;20569;-71
2022/04/05 02:50:51;;;;;;;8.00;2.10;;;;;;;;;;4908306;29;20048;-69
2022/04/05 02:53:17;;;;;;;6.25;2.17;;;;;;;;;;4907970;29;20402;-69
2022/04/05 02:55:43;;;;;;;8.18;2.00;;;;;;;;;;4899578;29;20045;-69
2022/04/05 02:58:09;;;;;;;6.47;2.25;;;;;;;;;;4909651;29;20596;-70
2022/04/05 03:00:36;;;;;;;6.00;2.00;;;;;;;;;;4906431;29;20056;-69
2022/04/05 03:03:03;;;;;;;5.80;1.90;;;;;;;;;;4915231;29;20565;-69
2022/04/05 03:05:29;;;;;;;5.20;2.38;;;;;;;;;;4910624;29;20176;-69
2022/04/05 03:07:55;;;;;;;6.35;1.92;;;;;;;;;;4910072;29;20529;-68
2022/04/05 03:10:21;;;;;;;6.25;2.15;;;;;;;;;;4907128;29;20043;-70
2022/04/05 03:12:47;;;;;;;5.30;2.00;;;;;;;;;;4908558;29;20554;-69
2022/04/05 03:15:13;;;;;;;7.88;2.15;;;;;;;;;;4909228;29;20474;-68
2022/04/05 03:17:44;;;;;;;6.30;1.85;;;;;;;;;;4910387;29;20048;-70
2022/04/05 03:20:14;;;;;;;7.70;2.00;;;;;;;;;;4908655;29;20060;-68
2022/04/05 03:22:42;;;;;;;4.65;2.00;;;;;;;;;;4909698;29;20048;-72
2022/04/05 03:25:10;;;;;;;5.32;2.17;;;;;;;;;;4910260;29;20071;-69
2022/04/05 03:27:43;;;;;;;12.05;3.35;;;;;;;;;;4906372;29;20060;-69
2022/04/05 03:30:10;;;;;;;5.72;2.35;;;;;;;;;;4907835;29;20458;-68
2022/04/05 03:32:36;;;;;;;3.90;1.92;;;;;;;;;;4907734;29;20422;-69
2022/04/05 03:35:04;;;;;;;4.68;2.15;;;;;;;;;;4909823;29;20143;-68
2022/04/05 03:37:30;;;;;;;6.18;2.30;;;;;;;;;;4909468;29;20064;-69
2022/04/05 03:39:56;;;;;;;5.65;1.90;;;;;;;;;;4908982;29;20139;-70
2022/04/05 03:42:22;;;;;;;3.83;2.20;;;;;;;;;;4909573;29;20052;-70
2022/04/05 03:44:48;;;;;;;4.13;2.03;;;;;;;;;;4905785;29;20655;-69
2022/04/05 03:47:14;;;;;;;8.20;2.10;;;;;;;;;;4908817;29;20585;-71
2022/04/05 03:49:41;;;;;;;6.03;2.22;;;;;;;;;;4907752;29;20059;-70
2022/04/05 03:52:07;;;;;;;5.70;2.35;;;;;;;;;;4908630;29;20047;-68
2022/04/05 03:54:33;;;;;;;9.48;2.53;;;;;;;;;;4912913;29;20115;-69
2022/04/05 03:56:59;;;;;;;4.53;2.10;;;;;;;;;;4912326;29;20047;-71
2022/04/05 03:59:25;;;;;;;6.68;2.40;;;;;;;;;;4910940;29;20052;-69
2022/04/05 04:01:51;;;;;;;5.68;2.20;;;;;;;;;;4909250;29;20506;-68
2022/04/05 04:04:17;;;;;;;10.80;2.20;;;;;;;;;;4906066;29;20234;-69
2022/04/05 04:06:44;;;;;;;7.72;2.20;;;;;;;;;;4910803;29;20131;-69
2022/04/05 04:09:11;;;;;;;5.35;2.22;;;;;;;;;;4909624;29;20044;-68
2022/04/05 04:11:41;;;;;;;6.38;2.10;;;;;;;;;;4912691;29;20048;-69
2022/04/05 04:14:07;;;;;;;5.85;2.30;;;;;;;;;;4912530;29;20048;-69
2022/04/05 04:16:34;;;;;;;9.05;2.08;;;;;;;;;;4906383;29;20060;-69
2022/04/05 04:19:00;;;;;;;4.60;2.08;;;;;;;;;;4904160;29;20060;-69
2022/04/05 04:21:26;;;;;;;8.30;2.10;;;;;;;;;;4911741;29;20511;-70
2022/04/05 04:23:52;;;;;;;6.47;2.10;;;;;;;;;;4908730;29;20196;-66
2022/04/05 04:26:18;;;;;;;4.82;2.22;;;;;;;;;;4908276;29;20366;-69
2022/04/05 04:28:44;;;;;;;5.65;2.33;;;;;;;;;;4904555;29;20051;-70
2022/04/05 04:31:10;;;;;;;6.70;2.15;;;;;;;;;;4911821;29;20203;-69
2022/04/05 04:33:36;;;;;;;6.00;2.38;;;;;;;;;;4907773;29;20044;-70
2022/04/05 04:36:01;;;;;;;5.82;2.03;;;;;;;;;;4910462;29;20040;-68
2022/04/05 04:38:28;;;;;;;4.70;2.05;;;;;;;;;;4910659;29;20071;-67
2022/04/05 04:40:54;;;;;;;7.20;2.50;;;;;;;;;;4913181;29;20058;-68
2022/04/05 04:43:21;;;;;;;5.13;1.95;;;;;;;;;;4890882;29;20056;-69
2022/04/05 04:45:47;;;;;;;6.70;2.22;;;;;;;;;;4903940;29;20072;-68
2022/04/05 04:48:13;;;;;;;4.65;2.20;;;;;;;;;;4905056;29;20048;-69
2022/04/05 04:50:39;;;;;;;6.47;2.20;;;;;;;;;;4907979;29;20455;-70
2022/04/05 04:53:04;;;;;;;11.00;2.42;;;;;;;;;;4908267;29;20303;-69
2022/04/05 04:55:32;;;;;;;4.50;2.10;;;;;;;;;;4906813;29;20060;-71
2022/04/05 04:57:58;;;;;;;7.65;2.17;;;;;;;;;;4904498;29;20059;-69
2022/04/05 05:00:25;;;;;;;5.85;1.90;;;;;;;;;;4904641;29;20059;-69
2022/04/05 05:02:51;;;;;;;5.28;1.95;;;;;;;;;;4900943;29;20044;-69
2022/04/05 05:05:21;;;;;;;3.80;2.10;;;;;;;;;;4905868;29;20552;-69
2022/04/05 05:07:48;;;;;;;6.90;2.00;;;;;;;;;;4903681;29;20413;-71
2022/04/05 05:10:16;;;;;;;8.05;1.85;;;;;;;;;;4904597;29;20063;-67
2022/04/05 05:12:42;;;;;;;4.05;2.20;;;;;;;;;;4904217;29;20052;-68
2022/04/05 05:15:16;;;;;;;5.32;2.00;;;;;;;;;;4905720;29;20451;-67
2022/04/05 05:17:43;;;;;;;;;;;;;;;;;;4904116;29;20063;-69
2022/04/05 05:20:10;;;;;;;5.57;2.20;;;;;;;;;;4901741;29;19938;-70
2022/04/05 05:22:36;;;;;;;7.95;2.17;;;;;;;;;;4904517;29;20048;-70
2022/04/05 05:25:03;;;;;;;10.65;2.53;;;;;;;;;;4903885;29;20060;-70
2022/04/05 05:27:29;;;;;;;7.25;2.40;;;;;;;;;;4904458;29;20056;-70
2022/04/05 05:29:55;;;;;;;8.77;2.13;;;;;;;;;;4902612;29;20056;-70
2022/04/05 05:32:21;;;;;;;8.85;2.00;;;;;;;;;;4903096;29;20052;-69
2022/04/05 05:34:47;;;;;;;4.30;2.10;;;;;;;;;;4903177;29;20053;-69
2022/04/05 05:37:13;;;;;;;4.75;2.20;;;;;;;;;;4904180;29;20411;-71
2022/04/05 05:39:40;;;;;;;5.63;2.10;;;;;;;;;;4902685;29;20389;-70
2022/04/05 05:42:06;;;;;;;5.30;1.98;;;;;;;;;;4903737;29;20056;-69
2022/04/05 05:44:33;;;;;;;4.68;1.88;;;;;;;;;;4903728;29;20064;-70
2022/04/05 05:47:02;;;;;;;6.88;2.40;;;;;;;;;;4903747;29;20059;-70
2022/04/05 05:49:28;;;;;;;7.00;3.00;;;;;;;;;;4897605;29;20448;-69
2022/04/05 05:51:54;;;;;;;5.47;2.10;;;;;;;;;;4902913;29;20045;-69
2022/04/05 05:54:20;;;;;;;6.45;2.17;;;;;;;;;;4904357;29;20362;-71
2022/04/05 05:56:46;;;;;;;6.68;2.10;;;;;;;;;;4905192;29;20416;-71
2022/04/05 05:59:12;;;;;;;5.13;2.10;;;;;;;;;;4904322;29;20040;-68
2022/04/05 06:01:38;;;;;;;5.63;1.80;;;;;;;;;;4896120;29;20063;-72
2022/04/05 06:04:05;;;;;;;4.25;1.90;;;;;;;;;;4902628;29;20056;-71
2022/04/05 06:06:31;;;;;;;3.67;2.05;;;;;;;;;;4904832;29;20100;-74
2022/04/05 06:08:57;;;;;;;3.90;2.00;;;;;;;;;;4905052;29;20104;-70
2022/04/05 06:11:24;;;;;;;6.05;2.10;;;;;;;;;;4902424;29;20052;-71
2022/04/05 06:13:50;;;;;;;8.52;2.33;;;;;;;;;;4903392;29;20569;-69
2022/04/05 06:16:18;;;;;;;5.93;2.30;;;;;;;;;;4903934;29;20463;-69
2022/04/05 06:18:47;;;;;;;3.60;2.03;;;;;;;;;;4903175;29;20065;-69
2022/04/05 06:21:14;;;;;;;5.18;2.00;;;;;;;;;;4904362;29;20063;-69
2022/04/05 06:23:40;;;;;;;8.30;2.00;;;;;;;;;;4904169;29;20055;-70
2022/04/05 06:26:06;;;;;;;6.35;2.13;;;;;;;;;;4905891;29;20052;-69
2022/04/05 06:28:32;;;;;;;7.93;2.28;;;;;;;;;;4903230;29;20084;-72
2022/04/05 06:30:58;;;;;;;5.22;1.98;;;;;;;;;;4903040;29;20051;-70
2022/04/05 06:33:24;;;;;;;4.25;1.95;;;;;;;;;;4900489;29;20044;-71
2022/04/05 06:35:56;;;;;;;6.60;2.22;;;;;;;;;;4903343;29;20071;-69
2022/04/05 06:38:23;;;;;;;5.88;2.00;;;;;;;;;;4904311;29;20075;-69
2022/04/05 06:40:49;;;;;;;6.80;2.40;;;;;;;;;;4902186;29;20137;-68
2022/04/05 06:43:19;;;;;;;4.00;1.90;;;;;;;;;;4900770;29;20052;-70
2022/04/05 06:45:46;;;;;;;10.02;2.38;;;;;;;;;;4896583;29;20059;-70
2022/04/05 06:48:12;;;;;;;5.78;2.20;;;;;;;;;;4910386;29;20322;-72
2022/04/05 06:50:39;;;;;;;7.25;2.00;;;;;;;;;;4907877;29;20044;-73
2022/04/05 06:53:06;;;;;;;9.30;2.35;;;;;;;;;;4908068;29;20075;-69
2022/04/05 06:55:32;;;;;;;7.55;2.33;;;;;;;;;;4912198;29;20041;-69
2022/04/05 06:57:58;;;;;;;7.50;2.47;;;;;;;;;;4909486;29;20040;-68
2022/04/05 07:00:25;;;;;;;7.25;2.70;;;;;;;;;;4909608;29;20500;-68
2022/04/05 07:02:53;;;;;;;6.53;2.33;;;;;;;;;;4909472;29;20405;-67
2022/04/05 07:05:20;;;;;;;7.43;2.05;;;;;;;;;;4913251;29;20044;-68
2022/04/05 07:07:47;;;;;;;4.75;2.00;;;;;;;;;;4908767;29;20459;-67
2022/04/05 07:10:15;;;;;;;3.38;2.03;;;;;;;;;;4908887;29;20044;-69
2022/04/05 07:12:42;;;;;;;8.95;2.33;;;;;;;;;;4903997;29;20059;-70
2022/04/05 07:15:10;;;;;;;3.90;1.85;;;;;;;;;;4908811;29;20052;-66
2022/04/05 07:17:37;;;;;;;6.00;2.42;;;;;;;;;;4916528;29;20498;-67
2022/04/05 07:20:04;;;;;;;7.97;3.00;;;;;;;;;;4909611;29;20047;-67
2022/04/05 07:22:30;;;;;;;7.03;2.13;;;;;;;;;;4901368;29;20524;-67
2022/04/05 07:24:56;;;;;;;6.50;1.60;;;;;;;;;;4906212;29;22145;-69
2022/04/05 07:27:22;;;;;;;7.65;2.08;;;;;;;;;;4905717;29;20350;-70
2022/04/05 07:29:48;;;;;;;3.83;1.90;;;;;;;;;;4910022;29;20115;-67
2022/04/05 07:32:14;;;;;;;4.65;2.10;;;;;;;;;;4910384;29;20053;-68
2022/04/05 07:34:39;;;;;;;7.35;2.05;;;;;;;;;;4908111;29;20044;-67
2022/04/05 07:37:05;;;;;;;8.52;1.90;;;;;;;;;;4908827;29;20048;-69
2022/04/05 07:39:31;;;;;;;6.10;1.90;;;;;;;;;;4918041;29;20055;-69
2022/04/05 07:41:57;;;;;;;4.43;1.90;;;;;;;;;;4911456;29;20467;-70
2022/04/05 07:44:24;;;;;;;5.57;2.40;;;;;;;;;;4907309;29;20060;-66
2022/04/05 07:46:49;;;;;;;5.43;1.92;;;;;;;;;;4909873;29;20079;-67
2022/04/05 07:49:15;;;;;;;4.88;1.83;;;;;;;;;;4908876;29;20055;-67
2022/04/05 07:51:42;;;;;;;3.67;1.95;;;;;;;;;;4909627;29;20131;-69
2022/04/05 07:54:07;;;;;;;5.60;2.22;;;;;;;;;;4909808;29;20052;-68
2022/04/05 07:56:33;;;;;;;3.65;1.88;;;;;;;;;;4909050;29;20048;-69
2022/04/05 07:59:01;;;;;;;5.43;2.00;;;;;;;;;;4910417;29;20066;-67
2022/04/05 08:01:29;;;;;;;9.90;2.00;;;;;;;;;;4909328;29;20104;-66
2022/04/05 08:03:57;;;;;;;4.55;1.90;;;;;;;;;;4909495;29;20059;-67
2022/04/05 08:06:24;;;;;;;3.92;2.30;;;;;;;;;;4909988;29;20067;-67
2022/04/05 08:08:51;;;;;;;8.75;2.08;;;;;;;;;;4908325;29;20099;-68
2022/04/05 08:11:16;;;;;;;4.70;1.90;;;;;;;;;;4909853;29;20139;-67
2022/04/05 08:13:42;;;;;;;7.57;2.00;;;;;;;;;;4910974;29;20059;-68
2022/04/05 08:16:08;;;;;;;6.35;2.65;;;;;;;;;;4910600;29;20079;-66
2022/04/05 08:18:34;;;;;;;4.70;2.00;;;;;;;;;;4912810;29;20064;-70
2022/04/05 08:21:00;;;;;;;3.45;1.70;;;;;;;;;;4912104;29;20737;-68
2022/04/05 08:23:26;;;;;;;8.27;2.30;;;;;;;;;;4909784;29;20044;-67
2022/04/05 08:25:52;;;;;;;4.35;2.20;;;;;;;;;;4909601;29;20160;-68
2022/04/05 08:28:19;;;;;;;4.85;1.70;;;;;;;;;;4910433;29;20093;-68
2022/04/05 08:30:45;;;;;;;8.80;2.20;;;;;;;;;;4910539;29;20110;-68
2022/04/05 08:33:11;;;;;;;8.82;2.72;;;;;;;;;;4914687;29;20063;-70
2022/04/05 08:35:39;;;;;;;5.93;1.95;;;;;;;;;;4916801;29;20079;-70
2022/04/05 08:38:06;;;;;;;10.10;1.90;;;;;;;;;;4912136;29;20048;-69
2022/04/05 08:40:32;;;;;;;5.15;2.05;;;;;;;;;;4916068;29;20059;-67
2022/04/05 08:42:58;;;;;;;8.88;2.03;;;;;;;;;;4915207;29;20645;-68
2022/04/05 08:45:26;;;;;;;6.57;2.10;;;;;;;;;;4916029;29;20040;-68
2022/04/05 08:47:55;;;;;;;4.90;2.33;;;;;;;;;;4912292;29;20091;-67
2022/04/05 08:50:24;;;;;;;5.03;2.13;;;;;;;;;;4916663;29;20080;-68
2022/04/05 08:52:50;;;;;;;5.90;1.98;;;;;;;;;;4921793;29;20119;-71
2022/04/05 08:55:18;;;;;;;6.93;2.30;;;;;;;;;;4918619;29;20052;-67
2022/04/05 08:57:44;;;;;;;12.10;2.85;;;;;;;;;;4913290;29;20049;-69
2022/04/05 09:00:14;;;;;;;7.40;2.13;;;;;;;;;;4912108;29;20395;-67
2022/04/05 09:02:55;;;;;;;8.85;2.38;;;;;;;;;;4909239;29;20044;-68
2022/04/05 09:05:39;;;;;;;5.28;2.20;;;;;;;;;;4912284;29;20056;-68
2022/04/05 09:08:31;;;;;;;5.30;2.03;;;;;;;;;;4913423;29;20111;-67
2022/04/05 09:11:12;;;;;;;5.18;1.95;;;;;;;;;;4921951;29;20051;-68
2022/04/05 09:13:39;;;;;;;9.13;2.20;;;;;;;;;;4921894;29;20052;-66
2022/04/05 09:16:05;;;;;;;7.88;2.33;;;;;;;;;;4915645;29;20036;-68
2022/04/05 09:18:36;;;;;;;9.25;2.30;;;;;;;;;;4916091;29;20047;-72
2022/04/05 09:21:04;;;;;;;11.70;2.40;;;;;;;;;;4909139;29;20139;-72
2022/04/05 09:23:41;;;;;;;8.27;2.22;;;;;;;;;;4909458;29;20055;-68
2022/04/05 09:26:13;;;;;;;5.82;2.25;;;;;;;;;;4908321;29;20052;-72
2022/04/05 09:28:41;;;;;;;14.13;2.70;;;;;;;;;;4908865;29;20048;-72
2022/04/05 09:31:18;;;;;;;10.50;2.47;;;;;;;;;;4905763;29;20052;-70
2022/04/05 09:34:04;;;;;;;14.15;2.40;;;;;;;;;;4909538;29;20040;-73
2022/04/05 09:36:39;;;;;;;9.55;3.33;;;;;;;;;;4911105;29;20052;-71
2022/04/05 09:39:25;;;;;;;8.88;2.50;;;;;;;;;;4911846;29;20055;-72
2022/04/05 09:42:05;;;;;;;11.13;2.90;;;;;;;;;;4910040;29;20536;-74
2022/04/05 09:44:32;;;;;;;7.22;2.40;;;;;;;;;;4910724;29;20103;-71
2022/04/05 09:47:03;;;;;;;14.40;3.08;;;;;;;;;;4909986;29;20066;-69
2022/04/05 09:49:32;;;;;;;6.47;2.90;;;;;;;;;;4907242;29;20067;-72
2022/04/05 09:51:58;;;;;;;12.68;3.67;;;;;;;;;;4911727;29;20048;-72
2022/04/05 09:54:30;;;;;;;15.00;2.95;;;;;;;;;;4917013;29;20404;-69
2022/04/05 09:57:03;;;;;;;10.32;2.75;;;;;;;;;;4916937;29;20099;-71
2022/04/05 09:59:43;;;;;;;12.27;2.85;;;;;;;;;;4911103;29;20103;-70
2022/04/05 10:02:16;;;;;;;7.90;2.92;;;;;;;;;;4904590;29;20064;-76
2022/04/05 10:05:05;;;;;;;10.15;2.47;;;;;;;;;;4908247;29;20075;-70
2022/04/05 10:07:32;;;;;;;12.25;2.80;;;;;;;;;;4913447;29;20048;-70
2022/04/05 10:10:00;;;;;;;11.00;2.60;;;;;;;;;;4913118;29;20103;-69
2022/04/05 10:12:27;;;;;;;12.82;2.70;;;;;;;;;;4927017;29;20055;-72
2022/04/05 10:14:53;;;;;;;12.43;2.70;;;;;;;;;;4914328;29;20411;-71
2022/04/05 10:17:20;;;;;;;7.95;2.35;;;;;;;;;;4911629;29;20050;-70
2022/04/05 10:19:49;;;;;;;10.40;2.65;;;;;;;;;;4907498;29;20122;-72
2022/04/05 10:22:17;;;;;;;10.48;2.45;;;;;;;;;;4911659;29;20074;-73
2022/04/05 10:24:45;;;;;;;11.10;2.95;;;;;;;;;;4915732;29;20043;-70
2022/04/05 10:27:13;;;;;;;9.90;2.53;;;;;;;;;;4894443;29;20052;-70
2022/04/05 10:29:42;;;;;;;9.05;2.38;;;;;;;;;;4911747;29;20413;-70
2022/04/05 10:32:24;;;;;;;8.13;2.42;;;;;;;;;;4910035;29;20055;-71
2022/04/05 10:34:56;;;;;;;10.25;2.72;;;;;;;;;;4913662;29;20094;-69
2022/04/05 10:37:30;;;;;;;6.50;2.95;;;;;;;;;;4913683;29;20067;-73
2022/04/05 10:39:56;;;;;;;8.38;2.88;;;;;;;;;;4909842;29;20052;-71
2022/04/05 10:42:25;;;;;;;9.57;3.03;;;;;;;;;;4915066;29;20522;-74
2022/04/05 10:44:52;;;;;;;9.80;3.17;;;;;;;;;;4909982;29;20048;-74
2022/04/05 10:47:19;;;;;;;9.20;2.70;;;;;;;;;;4913057;29;20405;-71
2022/04/05 10:49:50;;;;;;;11.02;3.08;;;;;;;;;;4914731;29;20048;-71
2022/04/05 10:52:19;;;;;;;10.98;2.90;;;;;;;;;;4916796;29;20060;-70
2022/04/05 10:54:50;;;;;;;12.82;3.40;;;;;;;;;;4916304;29;20549;-71
2022/04/05 10:57:34;;;;;;;10.13;2.83;;;;;;;;;;4913689;29;20099;-72
2022/04/05 11:00:22;;;;;;;11.15;3.00;;;;;;;;;;4904984;29;20457;-71
2022/04/05 11:02:51;;;;;;;13.07;3.05;;;;;;;;;;4908654;29;20170;-72
2022/04/05 11:05:18;;;;;;;7.88;2.72;;;;;;;;;;4906499;29;20468;-71
2022/04/05 11:08:00;;;;;;;6.53;2.58;;;;;;;;;;4908518;29;20506;-70
2022/04/05 11:10:37;;;;;;;10.57;2.92;;;;;;;;;;4913057;29;20055;-71
2022/04/05 11:13:08;;;;;;;8.95;2.80;;;;;;;;;;4908679;29;20056;-73
2022/04/05 11:15:46;;;;;;;6.10;2.70;;;;;;;;;;4906897;29;20171;-72
2022/04/05 11:18:14;;;;;;;8.55;3.22;;;;;;;;;;4908259;29;20413;-72
2022/04/05 11:20:42;;;;;;;11.30;3.00;;;;;;;;;;4909158;29;20055;-71
2022/04/05 11:23:08;;;;;;;13.07;2.78;;;;;;;;;;4907184;29;20059;-71
2022/04/05 11:25:35;;;;;;;8.63;3.20;;;;;;;;;;4904258;29;20336;-70
2022/04/05 11:28:19;;;;;;;13.18;3.40;;;;;;;;;;4906652;29;20350;-71
2022/04/05 11:31:04;;;;;;;15.45;3.83;;;;;;;;;;4904737;29;20055;-71
2022/04/05 11:33:33;;;;;;;17.92;3.63;;;;;;;;;;4906995;29;20047;-74
2022/04/05 11:36:09;;;;;;;9.35;3.38;;;;;;;;;;4906552;29;20044;-72
2022/04/05 11:38:36;;;;;;;15.25;3.50;;;;;;;;;;4908363;29;20052;-73
2022/04/05 11:41:22;;;;;;;8.90;3.90;;;;;;;;;;4902012;29;20048;-72
2022/04/05 11:44:00;;;;;;;12.90;3.28;;;;;;;;;;4907200;29;20044;-70
2022/04/05 11:46:28;;;;;;;10.73;3.95;;;;;;;;;;4907053;29;20048;-70
2022/04/05 11:49:03;;;;;;;11.27;3.78;;;;;;;;;;4910538;29;20040;-71
2022/04/05 11:51:30;;;;;;;;;;;;;;;;;;4907127;29;20104;-71
2022/04/05 11:54:14;;;;;;;8.30;3.85;;;;;;;;;;4905772;29;20258;-71
2022/04/05 11:56:41;;;;;;;14.10;3.72;;;;;;;;;;4904224;29;20131;-71
2022/04/05 11:59:09;;;;;;;7.00;3.72;;;;;;;;;;4906683;29;20131;-71
2022/04/05 12:01:39;;;;;;;13.95;3.83;;;;;;;;;;4907108;29;20508;-70
2022/04/05 12:04:07;;;;;;;11.50;3.92;;;;;;;;;;4904947;29;20041;-71
2022/04/05 12:06:35;;;;;;;15.60;4.28;;;;;;;;;;4903225;29;20149;-72
2022/04/05 12:09:04;;;;;;;9.25;3.58;;;;;;;;;;4906208;29;20405;-71
2022/04/05 12:11:32;;;;;;;10.27;4.72;;;;;;;;;;4904104;29;20108;-71
2022/04/05 12:14:04;;;;;;;7.15;3.42;;;;;;;;;;4891674;29;20040;-70
2022/04/05 12:16:47;;;;;;;13.60;4.70;;;;;;;;;;4910074;29;20048;-73
2022/04/05 12:19:40;;;;;;;13.73;3.78;;;;;;;;;;4909312;29;20127;-72
2022/04/05 12:22:08;;;;;;;11.82;3.90;;;;;;;;;;4906137;29;20052;-74
2022/04/05 12:24:57;;;;;;;8.98;3.30;;;;;;;;;;4910834;29;20088;-73
2022/04/05 12:27:24;;;;;;;10.63;3.47;;;;;;;;;;4910003;29;20063;-71
2022/04/05 12:29:57;;;;;;;11.38;3.70;;;;;;;;;;4911692;29;20127;-71
2022/04/05 12:32:23;;;;;;;6.00;3.30;;;;;;;;;;4910624;29;20055;-71
2022/04/05 12:34:49;;;;;;;11.80;3.50;;;;;;;;;;4912344;29;20040;-71
2022/04/05 12:37:16;;;;;;;9.45;3.95;;;;;;;;;;4912191;29;20052;-75
2022/04/05 12:39:54;;;;;;;9.98;3.80;;;;;;;;;;4917996;29;20327;-72
2022/04/05 12:42:21;;;;;;;8.70;3.17;;;;;;;;;;4911065;29;20052;-72
2022/04/05 12:44:55;;;;;;;8.48;3.58;;;;;;;;;;4910261;29;20040;-73
2022/04/05 12:47:23;;;;;;;7.47;3.75;;;;;;;;;;4910752;29;20044;-71
2022/04/05 12:49:57;;;;;;;17.75;4.30;;;;;;;;;;4911053;29;20056;-74
2022/04/05 12:52:26;;;;;;;12.00;4.03;;;;;;;;;;4911884;29;20110;-75
2022/04/05 12:55:01;;;;;;;7.55;3.35;;;;;;;;;;4910874;29;20123;-73
2022/04/05 12:57:40;;;;;;;11.10;3.40;;;;;;;;;;4909189;29;20119;-71
2022/04/05 13:00:13;;;;;;;13.10;3.83;;;;;;;;;;4911292;29;20498;-75
2022/04/05 13:02:43;;;;;;;11.75;3.63;;;;;;;;;;4891371;29;20052;-72
2022/04/05 13:08:13;;;;;;;6.47;3.25;;;;;;;;;;4909712;29;20060;-72
2022/04/05 13:10:40;;;;;;;6.93;3.50;;;;;;;;;;4909846;29;20068;-71
2022/04/05 13:13:14;;;;;;;6.78;3.15;;;;;;;;;;4910555;29;20072;-72
2022/04/05 13:15:41;;;;;;;11.30;3.47;;;;;;;;;;4894787;29;20052;-73
2022/04/05 13:18:07;;;;;;;6.57;3.33;;;;;;;;;;4903073;29;20115;-73
2022/04/05 13:20:33;;;;;;;16.08;3.75;;;;;;;;;;4911269;29;20410;-75
2022/04/05 13:23:04;;;;;;;9.82;3.47;;;;;;;;;;4910489;29;20076;-74
2022/04/05 13:25:38;;;;;;;6.72;3.25;;;;;;;;;;4910805;29;20044;-72
2022/04/05 13:28:07;;;;;;;8.45;3.95;;;;;;;;;;4910174;29;20047;-73
2022/04/05 13:30:44;;;;;;;11.77;3.42;;;;;;;;;;4917964;29;20060;-74
2022/04/05 13:33:11;;;;;;;8.52;3.38;;;;;;;;;;4909092;29;20103;-72
2022/04/05 13:35:38;;;;;;;7.18;3.30;;;;;;;;;;4909905;29;20147;-72
2022/04/05 13:38:04;;;;;;;9.70;2.90;;;;;;;;;;4898894;29;20051;-77
2022/04/05 13:40:32;;;;;;;8.05;3.47;;;;;;;;;;4894450;29;20514;-74
2022/04/05 13:42:58;;;;;;;12.23;3.67;;;;;;;;;;4893746;29;20171;-74
2022/04/05 13:45:24;;;;;;;11.80;3.65;;;;;;;;;;4893266;29;20502;-71
2022/04/05 13:47:50;;;;;;;13.85;3.88;;;;;;;;;;4886397;29;20631;-76
2022/04/05 13:50:17;;;;;;;9.35;3.38;;;;;;;;;;4882443;29;20289;-71
2022/04/05 13:52:43;;;;;;;8.00;2.90;;;;;;;;;;4883689;29;21555;-73
2022/04/05 13:55:09;;;;;;;9.05;3.05;;;;;;;;;;4880236;29;20764;-73
2022/04/05 13:57:35;;;;;;;10.68;3.75;;;;;;;;;;4888349;29;20191;-77
2022/04/05 14:00:06;;;;;;;10.43;3.47;;;;;;;;;;4889022;29;20055;-71
2022/04/05 14:02:32;;;;;;;8.00;2.88;;;;;;;;;;4890991;29;20060;-72
2022/04/05 14:04:58;;;;;;;11.27;3.15;;;;;;;;;;4887011;29;20967;-73
2022/04/05 14:07:25;;;;;;;10.80;3.25;;;;;;;;;;4884590;29;20087;-77
2022/04/05 14:09:51;;;;;;;10.85;3.20;;;;;;;;;;4881291;29;20097;-71
2022/04/05 14:12:17;;;;;;;10.93;3.08;;;;;;;;;;4884651;29;20573;-75
2022/04/05 14:14:43;;;;;;;8.80;3.42;;;;;;;;;;4882203;29;21293;-72
2022/04/05 14:17:10;;;;;;;11.05;2.97;;;;;;;;;;4885509;29;20056;-72
2022/04/05 14:19:36;;;;;;;5.70;2.50;;;;;;;;;;4883631;29;20144;-72
2022/04/05 14:22:02;;;;;;;10.70;2.70;;;;;;;;;;4882994;29;21250;-72
2022/04/05 14:24:28;;;;;;;11.18;4.03;;;;;;;;;;4881919;29;20056;-73
2022/04/05 14:26:54;;;;;;;11.75;2.60;;;;;;;;;;4882743;29;20462;-73
2022/04/05 14:29:20;;;;;;;6.97;2.40;;;;;;;;;;4883054;29;20083;-75
2022/04/05 14:31:46;;;;;;;7.10;2.53;;;;;;;;;;4884712;29;20725;-72
2022/04/05 14:34:12;;;;;;;3.92;2.40;;;;;;;;;;4882300;29;20048;-74
2022/04/05 14:36:39;;;;;;;8.48;2.58;;;;;;;;;;4878397;29;20637;-72
2022/04/05 14:39:08;;;;;;;6.18;2.70;;;;;;;;;;4882751;29;20135;-73
2022/04/05 14:41:36;;;;;;;10.20;3.20;;;;;;;;;;4882896;29;20133;-72
2022/04/05 14:44:03;;;;;;;12.25;2.85;;;;;;;;;;4884154;29;20074;-72
2022/04/05 14:46:31;;;;;;;8.07;3.10;;;;;;;;;;4877843;29;20040;-73
2022/04/05 14:49:00;;;;;;;7.25;2.92;;;;;;;;;;4879000;29;20062;-69
2022/04/05 14:51:27;;;;;;;8.40;3.17;;;;;;;;;;4880541;29;20158;-72